Time;durP1;ratioP1;P1;durP2;ratioP2;P2;SDS_P1;SDS_P2;PMS_P1;PMS_P2;Temp;Humidity;BMP_temperature;BMP_pressure;BME280_temperature;BME280_humidity;BME280_pressure;Samples;Min_cycle;Max_cycle;Signal;HPM_P1;HPM_P2
2022/09/10 00:01:24;;;;;;;11.93;8.97;;;15.40;99.90;;;;;;5055700;28;20052;-79
2022/09/10 00:03:50;;;;;;;13.20;8.80;;;15.40;99.90;;;;;;5063581;28;20296;-79
2022/09/10 00:06:17;;;;;;;12.52;8.70;;;15.40;99.90;;;;;;5074873;28;20098;-79
2022/09/10 00:08:44;;;;;;;12.93;8.85;;;15.40;99.90;;;;;;5071339;28;20042;-79
2022/09/10 00:11:10;;;;;;;13.20;9.85;;;15.40;99.90;;;;;;5067681;28;20048;-80
2022/09/10 00:13:38;;;;;;;10.80;8.65;;;15.50;99.90;;;;;;5075035;28;20034;-79
2022/09/10 00:16:08;;;;;;;13.90;9.73;;;15.50;99.90;;;;;;5062223;28;20044;-79
2022/09/10 00:18:34;;;;;;;14.57;9.30;;;15.50;99.90;;;;;;5070664;28;20045;-79
2022/09/10 00:21:03;;;;;;;12.52;10.15;;;15.50;99.90;;;;;;5061178;28;20067;-79
2022/09/10 00:23:29;;;;;;;13.93;9.40;;;15.50;99.90;;;;;;5051729;28;20054;-79
2022/09/10 00:25:56;;;;;;;14.55;10.07;;;15.50;99.90;;;;;;5071621;28;20080;-79
2022/09/10 00:28:24;;;;;;;13.50;9.27;;;15.50;99.90;;;;;;5066904;28;20038;-79
2022/09/10 00:30:53;;;;;;;13.30;9.07;;;15.50;99.90;;;;;;5052634;28;20071;-79
2022/09/10 00:33:20;;;;;;;12.25;9.52;;;15.50;99.90;;;;;;5076022;28;20052;-79
2022/09/10 00:35:46;;;;;;;17.77;9.80;;;15.50;99.90;;;;;;5064833;28;20037;-79
2022/09/10 00:38:13;;;;;;;14.02;9.90;;;15.50;99.90;;;;;;5079907;28;20043;-79
2022/09/10 00:40:39;;;;;;;10.35;8.70;;;15.50;99.90;;;;;;5064913;28;20494;-79
2022/09/10 00:43:10;;;;;;;;;;;15.50;99.90;;;;;;5075970;28;20053;-79
2022/09/10 00:45:36;;;;;;;13.40;9.93;;;15.50;99.90;;;;;;5078250;28;20377;-79
2022/09/10 00:48:13;;;;;;;13.18;9.75;;;15.50;99.90;;;;;;5066151;28;20140;-79
2022/09/10 00:50:41;;;;;;;13.13;9.75;;;15.50;99.90;;;;;;5064679;28;20040;-79
2022/09/10 00:53:11;;;;;;;14.98;9.63;;;15.50;99.90;;;;;;5069092;28;20395;-79
2022/09/10 00:55:40;;;;;;;14.00;10.23;;;15.50;99.90;;;;;;5074271;28;20107;-79
2022/09/10 00:58:09;;;;;;;13.98;10.15;;;15.50;99.90;;;;;;5077503;28;20152;-79
2022/09/10 01:00:35;;;;;;;13.00;10.35;;;15.50;99.90;;;;;;5069553;28;20037;-79
2022/09/10 01:03:05;;;;;;;11.25;9.52;;;15.50;99.90;;;;;;5067494;28;20046;-79
2022/09/10 01:05:31;;;;;;;13.35;10.90;;;15.50;99.90;;;;;;5071494;28;20053;-79
2022/09/10 01:07:57;;;;;;;15.40;10.68;;;15.50;99.90;;;;;;5074049;28;20036;-79
2022/09/10 01:10:35;;;;;;;15.90;11.10;;;15.60;99.90;;;;;;5059134;28;20071;-79
2022/09/10 01:13:26;;;;;;;14.98;10.85;;;15.50;99.90;;;;;;5045916;28;20041;-79
2022/09/10 01:16:14;;;;;;;14.82;11.95;;;15.50;99.90;;;;;;5070760;28;20026;-79
2022/09/10 01:19:18;;;;;;;14.55;11.07;;;15.50;99.90;;;;;;5073179;28;20049;-79
2022/09/10 01:22:02;;;;;;;15.25;11.80;;;15.50;99.90;;;;;;5073497;28;20053;-79
2022/09/10 01:24:50;;;;;;;14.45;11.10;;;15.50;99.90;;;;;;5075322;28;20123;-79
2022/09/10 01:27:36;;;;;;;16.35;11.10;;;15.50;99.90;;;;;;5066684;28;20123;-79
2022/09/10 01:30:14;;;;;;;14.20;11.25;;;15.50;99.90;;;;;;5070761;28;20072;-79
2022/09/10 01:33:03;;;;;;;15.23;11.15;;;15.50;99.90;;;;;;5072400;28;20043;-79
2022/09/10 01:35:39;;;;;;;15.32;11.50;;;15.50;99.90;;;;;;5079824;28;20523;-79
2022/09/10 01:38:37;;;;;;;15.18;11.32;;;15.60;99.90;;;;;;5053820;28;20101;-78
2022/09/10 01:41:06;;;;;;;;;;;15.50;99.90;;;;;;5051619;28;20111;-78
2022/09/10 01:43:32;;;;;;;15.02;11.57;;;15.50;99.90;;;;;;5076948;28;19921;-78
2022/09/10 01:46:30;;;;;;;15.23;11.43;;;15.50;99.90;;;;;;5079188;28;20380;-78
2022/09/10 01:49:25;;;;;;;16.02;12.52;;;15.50;99.90;;;;;;5076248;28;20040;-78
2022/09/10 01:52:20;;;;;;;19.75;14.07;;;15.60;99.90;;;;;;5082953;28;20072;-78
2022/09/10 01:55:09;;;;;;;16.52;13.68;;;15.60;99.90;;;;;;5070891;28;20060;-79
2022/09/10 01:57:47;;;;;;;20.73;14.63;;;15.60;99.90;;;;;;5074592;28;20042;-79
2022/09/10 02:00:16;;;;;;;23.02;15.43;;;15.50;99.90;;;;;;5047898;28;20158;-79
2022/09/10 02:03:11;;;;;;;20.58;14.68;;;15.60;99.90;;;;;;5074726;28;20047;-79
2022/09/10 02:05:40;;;;;;;23.73;16.05;;;15.60;99.90;;;;;;5078764;28;20057;-79
2022/09/10 02:08:13;;;;;;;26.33;18.00;;;15.50;99.90;;;;;;5059153;28;20073;-78
2022/09/10 02:11:02;;;;;;;23.27;16.95;;;15.50;99.90;;;;;;5077716;28;20121;-77
2022/09/10 02:13:29;;;;;;;24.35;16.27;;;15.50;99.90;;;;;;5071612;28;20394;-78
2022/09/10 02:15:55;;;;;;;24.75;16.33;;;15.50;99.90;;;;;;5056830;28;20072;-78
2022/09/10 02:18:22;;;;;;;23.42;17.50;;;15.50;99.90;;;;;;5077214;28;20546;-78
2022/09/10 02:20:50;;;;;;;27.48;18.58;;;15.50;99.90;;;;;;5071554;28;20054;-78
2022/09/10 02:23:19;;;;;;;26.98;17.38;;;15.50;99.90;;;;;;5069719;28;20050;-78
2022/09/10 02:25:47;;;;;;;28.92;19.73;;;15.50;99.90;;;;;;5058891;28;20039;-78
2022/09/10 02:28:12;;;;;;;25.23;19.05;;;15.50;99.90;;;;;;5043635;28;20046;-79
2022/09/10 02:30:41;;;;;;;28.52;19.98;;;15.50;99.90;;;;;;5043244;28;20129;-79
2022/09/10 02:33:06;;;;;;;26.15;19.40;;;15.50;99.90;;;;;;5059861;28;20082;-79
2022/09/10 02:35:32;;;;;;;27.58;20.35;;;15.50;99.90;;;;;;5042776;28;20038;-78
2022/09/10 02:37:58;;;;;;;27.42;19.13;;;15.60;99.90;;;;;;5058960;28;20077;-78
2022/09/10 02:40:24;;;;;;;29.30;20.55;;;15.50;99.90;;;;;;5059208;28;20046;-78
2022/09/10 02:42:50;;;;;;;28.98;19.65;;;15.50;99.90;;;;;;5059309;28;20102;-78
2022/09/10 02:45:15;;;;;;;30.42;19.58;;;15.50;99.90;;;;;;5059030;28;20129;-78
2022/09/10 02:47:41;;;;;;;28.00;20.02;;;15.50;99.90;;;;;;5025631;28;20057;-78
2022/09/10 02:50:07;;;;;;;26.02;19.17;;;15.60;99.90;;;;;;5042606;28;20039;-78
2022/09/10 02:52:33;;;;;;;;;;;15.60;99.90;;;;;;5042584;28;20038;-78
2022/09/10 02:54:59;;;;;;;28.80;20.10;;;15.60;99.90;;;;;;5059150;28;19921;-78
2022/09/10 02:57:25;;;;;;;29.80;18.95;;;15.50;99.90;;;;;;5058930;28;20503;-78
2022/09/10 02:59:52;;;;;;;;;;;15.50;99.90;;;;;;5059476;28;20042;-78
2022/09/10 03:02:19;;;;;;;27.58;18.67;;;15.50;99.90;;;;;;5058993;28;20004;-78
2022/09/10 03:04:45;;;;;;;27.27;19.58;;;15.50;99.90;;;;;;5042373;28;20377;-78
2022/09/10 03:07:11;;;;;;;31.40;20.85;;;15.60;99.90;;;;;;5041898;28;20082;-78
2022/09/10 03:09:39;;;;;;;27.48;19.90;;;15.50;99.90;;;;;;5058744;28;20077;-78
2022/09/10 03:12:06;;;;;;;27.80;19.60;;;15.50;99.90;;;;;;5058788;28;20127;-78
2022/09/10 03:14:33;;;;;;;28.27;20.73;;;15.50;99.90;;;;;;5042231;28;20069;-79
2022/09/10 03:16:59;;;;;;;29.75;20.95;;;15.50;99.90;;;;;;5058860;28;20042;-78
2022/09/10 03:19:25;;;;;;;27.45;19.90;;;15.50;99.90;;;;;;5041574;28;20133;-78
2022/09/10 03:21:51;;;;;;;;;;;15.60;99.90;;;;;;5058866;28;20149;-78
2022/09/10 03:24:18;;;;;;;27.08;19.30;;;15.50;99.90;;;;;;5058314;28;19922;-79
2022/09/10 03:26:43;;;;;;;32.55;21.63;;;15.50;99.90;;;;;;5025627;28;20049;-79
2022/09/10 03:29:09;;;;;;;30.63;21.20;;;15.50;99.90;;;;;;5041901;28;20050;-79
2022/09/10 03:31:35;;;;;;;31.15;20.92;;;15.50;99.90;;;;;;5058187;28;20081;-79
2022/09/10 03:34:02;;;;;;;;;;;15.50;99.90;;;;;;5058788;28;20053;-79
2022/09/10 03:36:30;;;;;;;30.30;21.73;;;15.50;99.90;;;;;;5041278;28;20000;-79
2022/09/10 03:38:57;;;;;;;30.15;20.15;;;15.50;99.90;;;;;;5058386;28;20506;-79
2022/09/10 03:41:23;;;;;;;29.50;21.75;;;15.50;99.90;;;;;;5058046;28;20050;-79
2022/09/10 03:43:48;;;;;;;29.58;20.92;;;15.50;99.90;;;;;;5058123;28;20198;-78
2022/09/10 03:46:14;;;;;;;29.20;21.27;;;15.50;99.90;;;;;;5058065;28;20042;-78
2022/09/10 03:48:42;;;;;;;31.90;21.67;;;15.50;99.90;;;;;;5058425;28;20099;-78
2022/09/10 03:51:09;;;;;;;30.55;21.33;;;15.50;99.90;;;;;;5041382;28;20050;-78
2022/09/10 03:53:37;;;;;;;33.65;22.30;;;15.50;99.90;;;;;;5058243;28;20056;-78
2022/09/10 03:56:03;;;;;;;27.40;20.45;;;15.50;99.90;;;;;;5058369;28;20371;-78
2022/09/10 03:58:31;;;;;;;29.30;21.35;;;15.50;99.90;;;;;;5057832;28;20054;-78
2022/09/10 04:00:57;;;;;;;29.70;21.13;;;15.50;99.90;;;;;;5057714;28;20057;-79
2022/09/10 04:03:23;;;;;;;32.47;22.17;;;15.40;99.90;;;;;;5058333;28;20500;-79
2022/09/10 04:05:49;;;;;;;28.95;20.08;;;15.40;99.90;;;;;;5041567;28;20049;-79
2022/09/10 04:08:15;;;;;;;32.40;21.42;;;15.50;99.90;;;;;;5024803;28;20043;-79
2022/09/10 04:10:42;;;;;;;31.50;22.27;;;15.40;99.90;;;;;;5041323;28;20065;-79
2022/09/10 04:13:08;;;;;;;33.20;22.35;;;15.50;99.90;;;;;;5058109;28;20437;-79
2022/09/10 04:15:35;;;;;;;35.00;23.05;;;15.50;99.90;;;;;;5057813;28;20085;-79
2022/09/10 04:18:01;;;;;;;38.45;24.15;;;15.50;99.90;;;;;;4990383;28;20544;-79
2022/09/10 04:20:29;;;;;;;36.30;23.77;;;15.40;99.90;;;;;;5057551;28;20050;-79
2022/09/10 04:22:55;;;;;;;37.03;24.30;;;15.40;99.90;;;;;;5041150;28;20043;-79
2022/09/10 04:25:22;;;;;;;39.88;24.98;;;15.40;99.90;;;;;;5057959;28;20046;-79
2022/09/10 04:27:48;;;;;;;;;;;15.40;99.90;;;;;;5057818;28;20045;-79
2022/09/10 04:30:15;;;;;;;37.70;24.70;;;15.40;99.90;;;;;;5057852;28;19917;-79
2022/09/10 04:32:41;;;;;;;34.38;23.42;;;15.40;99.90;;;;;;5040989;28;20050;-80
2022/09/10 04:35:07;;;;;;;38.22;22.92;;;15.40;99.90;;;;;;5040628;28;20049;-79
2022/09/10 04:37:33;;;;;;;;;;;15.40;99.90;;;;;;5057520;28;20050;-79
2022/09/10 04:39:59;;;;;;;36.05;22.95;;;15.40;99.90;;;;;;5057687;28;19922;-79
2022/09/10 04:42:25;;;;;;;38.05;23.50;;;15.40;99.90;;;;;;5057454;28;20049;-76
2022/09/10 04:44:51;;;;;;;36.22;23.20;;;15.40;99.90;;;;;;5057141;28;20484;-79
2022/09/10 04:47:17;;;;;;;42.83;24.20;;;15.30;99.90;;;;;;5040772;28;20064;-79
2022/09/10 04:49:43;;;;;;;34.80;22.38;;;15.40;99.90;;;;;;5060681;28;20034;-80
2022/09/10 04:52:10;;;;;;;36.30;23.77;;;15.40;99.90;;;;;;5061428;28;20057;-80
2022/09/10 04:54:36;;;;;;;34.53;22.65;;;15.40;99.90;;;;;;5061400;28;20050;-79
2022/09/10 04:57:03;;;;;;;33.97;21.90;;;15.40;99.90;;;;;;5044635;28;20042;-79
2022/09/10 04:59:30;;;;;;;31.83;21.15;;;15.40;99.90;;;;;;5061237;28;20526;-79
2022/09/10 05:01:56;;;;;;;32.28;21.95;;;15.40;99.90;;;;;;4993463;28;20050;-79
2022/09/10 05:04:21;;;;;;;34.78;22.13;;;15.40;99.90;;;;;;5061444;28;20049;-79
2022/09/10 05:06:49;;;;;;;28.85;21.05;;;15.40;99.90;;;;;;5061448;28;20038;-79
2022/09/10 05:09:18;;;;;;;30.15;21.20;;;15.40;99.90;;;;;;5061048;28;20121;-79
2022/09/10 05:11:45;;;;;;;28.05;20.40;;;15.30;99.90;;;;;;5060778;28;20065;-79
2022/09/10 05:14:12;;;;;;;31.15;20.77;;;15.40;99.90;;;;;;5061389;28;20494;-79
2022/09/10 05:16:38;;;;;;;31.48;21.38;;;15.20;99.90;;;;;;5044346;28;20053;-79
2022/09/10 05:19:05;;;;;;;29.63;20.67;;;15.30;99.90;;;;;;5060915;28;20042;-79
2022/09/10 05:21:31;;;;;;;;;;;15.40;99.90;;;;;;5061189;28;20396;-79
2022/09/10 05:23:57;;;;;;;29.95;20.00;;;15.70;99.90;;;;;;5060749;28;19928;-79
2022/09/10 05:26:23;;;;;;;28.90;20.08;;;15.40;99.90;;;;;;5044417;28;20046;-80
2022/09/10 05:28:50;;;;;;;;;;;15.40;99.90;;;;;;5044606;28;20571;-79
2022/09/10 05:31:16;;;;;;;30.30;19.60;;;15.50;99.90;;;;;;5044284;28;19970;-78
2022/09/10 05:33:42;;;;;;;30.52;19.85;;;15.50;99.90;;;;;;5044041;28;20046;-78
2022/09/10 05:36:08;;;;;;;27.40;19.30;;;15.40;99.90;;;;;;5060944;28;20046;-78
2022/09/10 05:38:34;;;;;;;27.52;19.55;;;15.50;99.90;;;;;;5060359;28;20072;-78
2022/09/10 05:41:00;;;;;;;30.30;19.40;;;15.50;99.90;;;;;;5043694;28;20052;-78
2022/09/10 05:43:26;;;;;;;28.27;19.10;;;15.50;99.90;;;;;;5027069;28;20046;-78
2022/09/10 05:45:52;;;;;;;;;;;15.50;99.90;;;;;;5043933;28;20053;-77
2022/09/10 05:48:18;;;;;;;28.98;19.30;;;15.50;99.90;;;;;;5060250;28;19918;-79
2022/09/10 05:50:44;;;;;;;27.42;18.98;;;15.50;99.90;;;;;;5043412;28;20045;-79
2022/09/10 05:53:10;;;;;;;29.30;19.27;;;15.50;99.90;;;;;;5043606;28;20051;-79
2022/09/10 05:55:36;;;;;;;27.00;18.35;;;15.50;99.90;;;;;;5060078;28;20162;-79
2022/09/10 05:58:02;;;;;;;;;;;15.50;99.90;;;;;;5060468;28;20189;-79
2022/09/10 06:00:28;;;;;;;26.70;18.33;;;15.60;99.90;;;;;;5058920;28;20005;-79
2022/09/10 06:02:55;;;;;;;25.50;18.55;;;15.60;99.90;;;;;;5059858;28;20043;-79
2022/09/10 06:05:22;;;;;;;27.70;18.55;;;15.60;99.90;;;;;;5027307;28;20046;-79
2022/09/10 06:07:48;;;;;;;28.85;18.77;;;15.70;99.90;;;;;;5059775;28;20074;-79
2022/09/10 06:10:14;;;;;;;26.90;19.05;;;15.70;99.90;;;;;;5059829;28;20089;-79
2022/09/10 06:12:50;;;;;;;25.25;18.52;;;15.70;99.90;;;;;;5059568;28;20035;-79
2022/09/10 06:15:17;;;;;;;32.90;18.87;;;15.70;99.90;;;;;;5026729;28;20046;-79
2022/09/10 06:17:43;;;;;;;23.98;17.83;;;15.70;99.90;;;;;;5043021;28;20034;-79
2022/09/10 06:20:11;;;;;;;23.67;18.40;;;15.70;99.90;;;;;;5059268;28;20203;-79
2022/09/10 06:22:37;;;;;;;26.88;17.77;;;15.70;99.90;;;;;;5042841;28;20089;-79
2022/09/10 06:25:04;;;;;;;23.63;18.25;;;15.80;99.90;;;;;;5059883;28;20051;-79
2022/09/10 06:27:30;;;;;;;29.83;18.27;;;15.70;99.90;;;;;;5059393;28;20034;-79
2022/09/10 06:29:55;;;;;;;23.75;17.40;;;15.70;99.90;;;;;;5059338;28;20038;-79
2022/09/10 06:32:21;;;;;;;27.92;18.42;;;15.70;99.90;;;;;;5026264;28;20484;-79
2022/09/10 06:34:47;;;;;;;24.10;17.75;;;15.70;99.90;;;;;;5042492;28;20043;-79
2022/09/10 06:37:13;;;;;;;26.23;18.02;;;15.70;99.90;;;;;;5060203;28;20385;-80
2022/09/10 06:39:39;;;;;;;28.17;17.42;;;15.80;99.90;;;;;;5043442;28;20050;-78
2022/09/10 06:42:06;;;;;;;27.00;18.25;;;15.80;99.90;;;;;;5058936;28;20126;-78
2022/09/10 06:44:31;;;;;;;26.70;17.35;;;15.80;99.90;;;;;;5042910;28;20095;-78
2022/09/10 06:46:57;;;;;;;26.50;18.23;;;15.80;99.90;;;;;;5042508;28;20034;-78
2022/09/10 06:49:23;;;;;;;25.63;17.42;;;15.90;99.90;;;;;;5058895;28;20054;-78
2022/09/10 06:51:49;;;;;;;26.27;17.98;;;15.80;99.90;;;;;;5058881;28;20047;-78
2022/09/10 06:54:17;;;;;;;27.52;19.27;;;15.90;99.90;;;;;;5042669;28;20377;-78
2022/09/10 06:56:45;;;;;;;26.77;18.33;;;15.90;99.90;;;;;;5042120;28;20054;-79
2022/09/10 06:59:13;;;;;;;25.45;17.25;;;15.90;99.90;;;;;;5058983;28;20125;-79
2022/09/10 07:01:39;;;;;;;28.13;18.50;;;15.90;99.90;;;;;;5058579;28;20050;-79
2022/09/10 07:04:05;;;;;;;24.85;17.73;;;16.00;99.90;;;;;;5042470;28;20042;-79
2022/09/10 07:06:34;;;;;;;27.60;18.10;;;16.00;99.90;;;;;;5042172;28;20038;-81
2022/09/10 07:09:00;;;;;;;27.98;17.80;;;16.00;99.90;;;;;;5059105;28;20125;-79
2022/09/10 07:11:31;;;;;;;26.45;18.00;;;16.10;99.90;;;;;;5058570;28;20490;-78
2022/09/10 07:13:57;;;;;;;26.20;17.85;;;16.10;99.90;;;;;;5058496;28;20064;-78
2022/09/10 07:16:25;;;;;;;27.02;17.95;;;16.20;99.90;;;;;;5041746;28;20495;-79
2022/09/10 07:18:55;;;;;;;25.65;17.17;;;16.20;99.90;;;;;;5058651;28;20133;-78
2022/09/10 07:21:24;;;;;;;27.30;18.33;;;16.20;99.90;;;;;;5058071;28;20058;-79
2022/09/10 07:23:54;;;;;;;27.10;17.65;;;16.30;99.90;;;;;;5058323;28;20149;-78
2022/09/10 07:26:20;;;;;;;27.58;18.02;;;16.30;99.90;;;;;;5058551;28;20099;-78
2022/09/10 07:28:46;;;;;;;26.85;18.15;;;16.30;99.90;;;;;;5058320;28;20038;-77
2022/09/10 07:31:19;;;;;;;26.35;18.17;;;16.30;99.90;;;;;;5057817;28;20427;-77
2022/09/10 07:33:46;;;;;;;26.38;18.20;;;16.30;99.90;;;;;;5058427;28;20379;-79
2022/09/10 07:36:12;;;;;;;28.13;18.05;;;16.30;99.90;;;;;;5058438;28;20373;-77
2022/09/10 07:38:39;;;;;;;;;;;16.30;99.90;;;;;;5058602;28;20074;-78
2022/09/10 07:41:06;;;;;;;30.80;18.98;;;16.40;99.90;;;;;;5058465;28;20321;-78
2022/09/10 07:43:32;;;;;;;26.75;17.77;;;16.40;99.90;;;;;;5058186;28;20047;-78
2022/09/10 07:45:57;;;;;;;26.83;18.10;;;16.40;99.90;;;;;;5058020;28;20122;-79
2022/09/10 07:48:26;;;;;;;26.90;18.63;;;16.40;99.90;;;;;;5057776;28;20121;-80
2022/09/10 07:50:52;;;;;;;29.83;18.75;;;16.40;99.90;;;;;;5041393;28;20042;-80
2022/09/10 07:53:18;;;;;;;29.25;18.15;;;16.40;99.90;;;;;;5057903;28;20046;-76
2022/09/10 07:55:44;;;;;;;;;;;16.50;99.90;;;;;;5041831;28;20054;-76
2022/09/10 07:58:09;;;;;;;30.23;17.95;;;16.50;99.90;;;;;;5057864;28;19917;-77
2022/09/10 08:00:35;;;;;;;32.25;18.13;;;16.50;99.90;;;;;;5058132;28;20087;-79
2022/09/10 08:03:02;;;;;;;29.25;18.13;;;16.50;99.90;;;;;;5058147;28;20054;-78
2022/09/10 08:05:27;;;;;;;;;;;16.50;99.90;;;;;;5058493;28;20129;-78
2022/09/10 08:07:53;;;;;;;30.02;18.25;;;16.50;99.90;;;;;;5057823;28;19956;-76
2022/09/10 08:10:19;;;;;;;30.27;17.92;;;16.60;99.90;;;;;;5057520;28;20042;-76
2022/09/10 08:12:46;;;;;;;27.48;18.20;;;16.60;99.90;;;;;;5057777;28;20049;-76
2022/09/10 08:15:11;;;;;;;29.13;17.85;;;16.60;99.90;;;;;;5057837;28;20053;-77
2022/09/10 08:17:37;;;;;;;30.20;17.98;;;16.70;99.90;;;;;;5041152;28;20038;-76
2022/09/10 08:20:06;;;;;;;29.55;17.65;;;16.70;99.90;;;;;;5027067;28;20108;-75
2022/09/10 08:22:33;;;;;;;27.10;17.48;;;16.70;99.90;;;;;;4969434;28;20050;-75
2022/09/10 08:25:02;;;;;;;29.52;18.25;;;16.80;99.90;;;;;;4953487;28;20130;-76
2022/09/10 08:27:28;;;;;;;29.63;17.48;;;16.80;99.90;;;;;;4969765;28;20031;-76
2022/09/10 08:29:53;;;;;;;30.25;17.48;;;16.80;99.90;;;;;;4969495;28;20384;-76
2022/09/10 08:32:20;;;;;;;25.63;17.83;;;16.80;99.90;;;;;;4970866;28;20595;-76
2022/09/10 08:34:47;;;;;;;25.23;17.90;;;16.90;99.90;;;;;;4969310;28;20047;-75
2022/09/10 08:37:13;;;;;;;30.58;18.52;;;16.90;99.90;;;;;;4969595;28;20084;-76
2022/09/10 08:39:39;;;;;;;28.88;18.40;;;16.90;99.90;;;;;;4937662;28;20104;-76
2022/09/10 08:42:26;;;;;;;26.63;16.90;;;17.00;99.90;;;;;;4969471;28;20042;-76
2022/09/10 08:44:59;;;;;;;27.80;17.20;;;17.00;99.90;;;;;;4968899;28;20126;-76
2022/09/10 08:47:44;;;;;;;22.98;17.70;;;17.00;99.90;;;;;;4969523;28;20160;-76
2022/09/10 08:50:26;;;;;;;25.40;17.50;;;17.00;99.90;;;;;;4969778;28;20050;-75
2022/09/10 08:53:33;;;;;;;23.60;16.25;;;17.00;99.90;;;;;;4969899;28;20443;-76
2022/09/10 08:56:04;;;;;;;22.83;15.52;;;17.00;99.90;;;;;;4969115;28;20062;-75
2022/09/10 08:58:43;;;;;;;27.02;17.05;;;17.00;99.90;;;;;;4969541;28;20391;-75
2022/09/10 09:01:17;;;;;;;23.63;16.05;;;17.00;99.90;;;;;;4953396;28;20049;-77
2022/09/10 09:03:45;;;;;;;23.67;16.48;;;17.00;99.90;;;;;;4969371;28;20054;-76
2022/09/10 09:06:36;;;;;;;22.80;16.35;;;17.00;99.90;;;;;;4969545;28;20031;-76
2022/09/10 09:09:03;;;;;;;23.17;15.55;;;17.00;99.90;;;;;;4953035;28;20112;-76
2022/09/10 09:11:50;;;;;;;21.70;15.27;;;17.10;99.90;;;;;;4969358;28;20074;-76
2022/09/10 09:14:38;;;;;;;25.10;15.37;;;17.10;99.90;;;;;;4969602;28;20610;-76
2022/09/10 09:17:04;;;;;;;22.35;15.68;;;17.10;99.90;;;;;;4969162;28;20381;-76
2022/09/10 09:19:43;;;;;;;;;;;17.20;99.90;;;;;;4954205;28;20047;-79
2022/09/10 09:22:20;;;;;;;22.35;14.40;;;17.30;99.90;;;;;;5057120;28;20302;-77
2022/09/10 09:24:56;;;;;;;21.10;14.65;;;17.30;99.90;;;;;;5057091;28;20071;-78
2022/09/10 09:27:25;;;;;;;17.88;14.10;;;17.30;99.90;;;;;;5057906;28;20050;-80
2022/09/10 09:30:05;;;;;;;19.83;13.63;;;17.30;99.90;;;;;;5057806;28;20053;-78
2022/09/10 09:32:39;;;;;;;18.83;13.45;;;17.30;99.90;;;;;;5058124;28;20502;-79
2022/09/10 09:35:26;;;;;;;20.63;13.68;;;17.40;99.90;;;;;;5042865;28;20069;-78
2022/09/10 09:38:06;;;;;;;20.13;13.50;;;17.40;99.90;;;;;;5060766;28;20476;-75
2022/09/10 09:40:44;;;;;;;21.10;13.55;;;17.40;99.90;;;;;;5060498;28;20046;-77
2022/09/10 09:43:22;;;;;;;17.85;13.05;;;17.40;99.90;;;;;;5060625;28;20426;-77
2022/09/10 09:45:51;;;;;;;18.70;13.25;;;17.40;99.90;;;;;;5060269;28;20051;-77
2022/09/10 09:48:19;;;;;;;19.80;13.85;;;17.40;99.90;;;;;;5060926;28;20039;-77
2022/09/10 09:50:48;;;;;;;17.27;13.10;;;17.40;99.90;;;;;;5060535;28;20107;-76
2022/09/10 09:53:22;;;;;;;18.67;13.25;;;17.40;99.90;;;;;;5060219;28;20087;-76
2022/09/10 09:56:02;;;;;;;17.10;12.65;;;17.50;99.90;;;;;;5060167;28;20146;-76
2022/09/10 09:58:36;;;;;;;20.00;13.90;;;17.50;99.90;;;;;;5043243;28;20121;-77
2022/09/10 10:01:08;;;;;;;19.20;13.90;;;17.50;99.90;;;;;;5060505;28;20050;-77
2022/09/10 10:03:52;;;;;;;24.15;14.60;;;17.60;99.90;;;;;;5059821;28;20057;-76
2022/09/10 10:06:52;;;;;;;18.95;13.35;;;17.60;99.90;;;;;;5060284;28;20074;-76
2022/09/10 10:09:42;;;;;;;18.98;13.63;;;17.60;99.90;;;;;;5053004;28;20050;-77
2022/09/10 10:12:19;;;;;;;17.30;12.80;;;17.70;99.90;;;;;;5069939;28;20141;-77
2022/09/10 10:14:44;;;;;;;17.83;12.93;;;17.70;99.90;;;;;;5070111;28;20490;-77
2022/09/10 10:17:28;;;;;;;18.42;12.98;;;17.80;99.90;;;;;;5057141;28;20106;-77
2022/09/10 10:20:04;;;;;;;18.92;12.75;;;17.90;99.90;;;;;;5065987;28;20041;-78
2022/09/10 10:22:30;;;;;;;15.10;10.93;;;17.90;99.90;;;;;;5073844;28;20128;-75
2022/09/10 10:24:59;;;;;;;16.60;12.00;;;17.90;99.90;;;;;;5070958;28;20297;-77
2022/09/10 10:27:40;;;;;;;17.40;11.48;;;17.90;99.90;;;;;;5056327;28;20074;-78
2022/09/10 10:30:21;;;;;;;19.05;13.00;;;18.00;99.90;;;;;;5044142;28;20131;-79
2022/09/10 10:33:00;;;;;;;19.85;12.90;;;18.00;99.90;;;;;;5074000;28;20087;-78
2022/09/10 10:35:29;;;;;;;17.42;12.65;;;18.10;99.90;;;;;;5074374;28;20040;-81
2022/09/10 10:38:17;;;;;;;18.80;12.23;;;18.10;99.90;;;;;;5069766;28;20038;-82
2022/09/10 10:41:08;;;;;;;17.02;12.02;;;18.20;99.90;;;;;;5070949;28;20105;-81
2022/09/10 10:44:11;;;;;;;17.13;12.00;;;18.20;99.90;;;;;;5063519;28;20091;-80
2022/09/10 10:47:02;;;;;;;16.60;11.60;;;18.30;99.90;;;;;;5069346;28;20057;-81
2022/09/10 10:49:43;;;;;;;15.98;11.30;;;18.40;99.90;;;;;;5060791;28;20034;-79
2022/09/10 10:52:35;;;;;;;15.15;10.73;;;18.50;99.90;;;;;;5080340;28;20046;-80
2022/09/10 10:55:12;;;;;;;13.52;9.85;;;18.50;99.90;;;;;;5069441;28;20069;-79
2022/09/10 10:57:56;;;;;;;14.25;10.07;;;18.60;99.90;;;;;;5053758;28;20065;-84
2022/09/10 11:00:22;;;;;;;12.52;9.60;;;18.70;99.90;;;;;;5077985;28;20084;-79
2022/09/10 11:03:09;;;;;;;16.10;10.93;;;18.80;99.90;;;;;;5069552;28;20034;-80
2022/09/10 11:05:48;;;;;;;14.77;9.70;;;18.90;99.90;;;;;;5074537;28;20057;-79
2022/09/10 11:08:26;;;;;;;14.00;10.13;;;18.90;99.90;;;;;;5073901;28;20049;-78
2022/09/10 11:11:12;;;;;;;14.35;10.02;;;19.00;99.90;;;;;;5069955;28;20125;-77
2022/09/10 11:13:46;;;;;;;14.68;9.77;;;19.00;99.90;;;;;;5054518;28;20066;-78
2022/09/10 11:16:22;;;;;;;15.32;10.73;;;19.00;99.90;;;;;;5065356;28;20092;-79
2022/09/10 11:18:57;;;;;;;12.52;9.82;;;19.10;99.90;;;;;;5063077;28;20129;-78
2022/09/10 11:21:38;;;;;;;14.88;11.30;;;19.10;99.90;;;;;;5070420;28;20145;-79
2022/09/10 11:24:05;;;;;;;13.48;9.85;;;19.20;99.90;;;;;;5054071;28;20060;-79
2022/09/10 11:26:49;;;;;;;16.10;10.23;;;19.30;99.90;;;;;;5048990;28;20038;-79
2022/09/10 11:29:32;;;;;;;18.38;10.88;;;19.40;99.90;;;;;;5072334;28;20449;-80
2022/09/10 11:32:13;;;;;;;13.85;9.18;;;19.60;99.90;;;;;;5066783;28;20033;-79
2022/09/10 11:35:07;;;;;;;13.85;9.23;;;19.70;99.90;;;;;;5045169;28;20434;-79
2022/09/10 11:37:55;;;;;;;13.40;9.85;;;19.70;99.90;;;;;;5063086;28;20384;-79
2022/09/10 11:40:40;;;;;;;12.70;9.55;;;19.90;99.90;;;;;;5074869;28;20044;-79
2022/09/10 11:43:13;;;;;;;11.68;8.90;;;20.10;99.90;;;;;;5075609;28;20526;-79
2022/09/10 11:45:53;;;;;;;10.77;8.57;;;20.10;99.90;;;;;;5062514;28;20079;-79
2022/09/10 11:48:46;;;;;;;14.00;9.40;;;19.90;99.90;;;;;;5045954;28;20045;-79
2022/09/10 11:51:23;;;;;;;11.10;8.40;;;19.80;99.90;;;;;;5054492;28;20043;-79
2022/09/10 11:53:49;;;;;;;;;;;19.90;99.90;;;;;;5056956;28;20074;-79
2022/09/10 11:56:35;;;;;;;13.10;9.02;;;19.80;99.90;;;;;;5068367;28;20319;-80
2022/09/10 11:59:41;;;;;;;12.55;8.88;;;19.90;99.90;;;;;;5064614;28;20049;-79
2022/09/10 12:02:41;;;;;;;11.32;8.82;;;20.10;99.90;;;;;;5066169;28;20042;-79
2022/09/10 12:06:00;;;;;;;11.60;8.52;;;20.00;99.90;;;;;;5044968;28;20054;-83
2022/09/10 12:08:42;;;;;;;10.60;8.63;;;20.40;99.90;;;;;;5044022;28;20399;-83
2022/09/10 12:11:31;;;;;;;13.48;9.60;;;21.00;99.90;;;;;;5068457;28;20087;-83
2022/09/10 12:13:57;;;;;;;10.73;9.02;;;21.40;99.90;;;;;;5077264;28;20048;-80
2022/09/10 12:16:23;;;;;;;12.38;8.23;;;22.00;99.90;;;;;;5079101;28;20055;-82
2022/09/10 12:18:53;;;;;;;10.23;7.72;;;22.60;99.90;;;;;;5065467;28;20042;-82
2022/09/10 12:21:31;;;;;;;12.32;9.02;;;23.40;99.90;;;;;;5070230;28;20061;-82
2022/09/10 12:24:00;;;;;;;11.50;8.30;;;23.00;99.90;;;;;;5059262;28;20102;-82
2022/09/10 12:26:26;;;;;;;11.57;7.55;;;23.60;99.90;;;;;;5048320;28;20045;-82
2022/09/10 12:28:51;;;;;;;;;;;23.70;99.90;;;;;;5075836;28;20026;-82
2022/09/10 12:31:21;;;;;;;6.93;4.47;;;23.30;99.90;;;;;;5106778;28;19920;-82
2022/09/10 12:33:46;;;;;;;9.80;6.35;;;23.90;99.90;;;;;;5050319;28;20034;-82
2022/09/10 12:36:13;;;;;;;;;;;24.10;99.90;;;;;;5071461;28;20046;-83
2022/09/10 12:38:51;;;;;;;8.60;6.07;;;23.90;99.90;;;;;;5061512;28;20008;-83
2022/09/10 12:41:20;;;;;;;8.10;5.35;;;24.30;99.90;;;;;;5055263;28;20078;-82
2022/09/10 12:43:46;;;;;;;8.07;5.78;;;24.90;99.90;;;;;;5054506;28;20181;-82
2022/09/10 12:46:11;;;;;;;;;;;25.20;99.90;;;;;;5069327;28;20221;-82
2022/09/10 12:48:46;;;;;;;8.02;5.78;;;25.20;99.90;;;;;;5067089;28;19917;-83
2022/09/10 12:51:18;;;;;;;6.32;4.65;;;25.70;99.90;;;;;;5070289;28;20034;-81
2022/09/10 12:53:54;;;;;;;6.47;4.65;;;26.10;99.90;;;;;;5077443;28;20561;-81
2022/09/10 12:56:22;;;;;;;6.28;5.03;;;26.50;99.90;;;;;;5060978;28;20045;-82
2022/09/10 12:59:05;;;;;;;7.18;5.30;;;26.40;99.90;;;;;;5058924;28;20092;-81